KGFA/GFA METAR and TAF weather

Enter ICAO airport designator
Station Type Date Time Source
KGFA METAR 2021/03/06 00:58 UTC NOAA

KGFA 060058Z AUTO 14005KT 10SM CLR 10/M08 A3000 RMK AO2 SLP180 T00991082 $


Station Type Date Time Source
KGFA Decoded METAR 2021/03/06 00:58 UTC NOAA

Malmstrom Air Force Base, MT, United States (KGFA) 47-30N 111-11W
Mar 05, 2021 - 07:58 PM EST / 2021.03.06 0058 UTC
Wind: from the SE (140 degrees) at 6 MPH (5 KT):0
Visibility: 10 mile(s):0
Sky conditions: clear
Temperature: 49.8 F (9.9 C)
Dew Point: 17.2 F (-8.2 C)
Relative Humidity: 27%
Pressure (altimeter): 30 in. Hg (1015 hPa)
ob: KGFA 060058Z AUTO 14005KT 10SM CLR 10/M08 A3000 RMK AO2 SLP180 T00991082
cycle: 1

Station Type Date Time Source
KGFA TAF 2021/03/05 19:03 UTC NOAA

TAF KGFA 051901Z 0519/0701 20015G20KT 9999 SKC QNH3001INS
TEMPO 0519/0601 20020G30KT 520009
BECMG 0601/0602 20012KT 9999 FEW250 QNH2974INS
BECMG 0612/0613 20012G18KT 9999 FEW200 QNH2968INS
BECMG 0615/0616 23020G30KT 9999 SCT150 520009 QNH2958INS
TEMPO 0621/0701 23030G40KT 530009 TX18/0523Z TN02/0612Z

Example: see airport list